Time;durP1;ratioP1;P1;durP2;ratioP2;P2;SDS_P1;SDS_P2;PMS_P1;PMS_P2;Temp;Humidity;BMP_temperature;BMP_pressure;BME280_temperature;BME280_humidity;BME280_pressure;Samples;Min_cycle;Max_cycle;Signal;HPM_P1;HPM_P2
2022/09/16 00:01:50;;;;;;;6.05;1.17;;;;;;;10.27;93.32;100989.16;4809087;29;20496;-95
2022/09/16 00:04:48;;;;;;;6.25;1.35;;;;;;;10.28;93.23;100997.94;4810933;29;20042;-96
2022/09/16 00:07:56;;;;;;;4.80;1.08;;;;;;;10.32;93.10;100995.88;4839319;29;20065;-96
2022/09/16 00:10:32;;;;;;;6.63;1.42;;;;;;;10.36;92.81;100995.50;4824313;29;20045;-96
2022/09/16 00:13:03;;;;;;;1.63;0.83;;;;;;;10.39;92.63;100994.38;4825638;29;20109;-95
2022/09/16 00:15:29;;;;;;;7.22;1.58;;;;;;;10.37;92.53;100981.31;4838924;29;20086;-96
2022/09/16 00:17:58;;;;;;;4.43;1.40;;;;;;;10.52;92.37;100988.94;4837879;29;20141;-95
2022/09/16 00:20:27;;;;;;;4.80;1.38;;;;;;;10.52;92.06;100987.13;4839987;29;20050;-96
2022/09/16 00:22:56;;;;;;;5.93;1.10;;;;;;;10.54;91.54;100992.28;4828648;29;20038;-95
2022/09/16 00:25:22;;;;;;;6.03;1.52;;;;;;;10.59;91.50;100995.34;4847215;29;20145;-94
2022/09/16 00:27:48;;;;;;;3.92;1.40;;;;;;;10.57;91.52;100993.81;4831524;29;20065;-94
2022/09/16 00:30:17;;;;;;;3.10;1.17;;;;;;;10.53;91.60;101006.47;4847538;29;20044;-95
2022/09/16 00:32:47;;;;;;;8.95;1.63;;;;;;;10.47;92.34;100999.03;4849838;29;20039;-96
2022/09/16 00:35:16;;;;;;;5.65;1.83;;;;;;;10.50;92.32;101006.72;4836927;29;20131;-95
2022/09/16 00:37:42;;;;;;;2.97;1.42;;;;;;;10.50;92.40;101004.91;4831783;29;20049;-95
2022/09/16 00:40:09;;;;;;;6.15;2.05;;;;;;;10.53;92.63;101006.47;4815931;29;20094;-95
2022/09/16 00:42:45;;;;;;;7.07;1.77;;;;;;;10.51;92.75;101014.50;4828818;29;20045;-95
2022/09/16 00:45:23;;;;;;;4.85;1.95;;;;;;;10.46;92.74;101007.94;4829908;29;20044;-96
2022/09/16 00:47:55;;;;;;;4.15;1.58;;;;;;;10.48;92.89;101025.34;4831139;29;20079;-95
2022/09/16 00:50:45;;;;;;;3.63;1.20;;;;;;;10.43;93.33;101015.13;4847306;29;20052;-95
2022/09/16 00:53:25;;;;;;;5.70;1.27;;;;;;;10.39;93.77;101015.53;4831676;29;20125;-95
2022/09/16 00:56:08;;;;;;;7.88;1.55;;;;;;;10.32;94.08;101012.53;4848213;29;20042;-94
2022/09/16 00:58:45;;;;;;;4.97;1.30;;;;;;;10.25;94.27;101016.69;4831950;29;20054;-94
2022/09/16 01:01:13;;;;;;;6.00;0.90;;;;;;;10.15;95.45;101006.88;4828133;29;20132;-95
2022/09/16 01:03:52;;;;;;;4.20;1.30;;;;;;;10.11;95.78;101008.13;4817699;29;20479;-95
2022/09/16 01:06:20;;;;;;;5.18;1.10;;;;;;;10.13;96.49;101018.56;4825026;29;20053;-95
2022/09/16 01:08:49;;;;;;;8.38;0.90;;;;;;;10.10;96.48;101019.63;4831852;29;20048;-95
2022/09/16 01:11:20;;;;;;;5.68;1.10;;;;;;;10.07;97.15;101011.97;4816874;29;20038;-95
2022/09/16 01:17:07;;;;;;;5.90;1.48;;;;;;;10.11;96.80;101018.69;4797250;29;20068;-94
2022/09/16 01:19:54;;;;;;;;;;;;;;;;;;;;;
2022/09/16 01:22:43;;;;;;;4.82;1.40;;;;;;;10.21;96.68;101012.63;4845730;29;20057;-95
2022/09/16 01:25:27;;;;;;;4.45;2.30;;;;;;;10.25;96.72;101006.13;4817288;29;20037;-94
2022/09/16 01:28:08;;;;;;;6.38;3.50;;;;;;;10.29;96.22;101004.88;4832512;29;20386;-96
2022/09/16 01:31:04;;;;;;;9.75;5.10;;;;;;;10.28;96.23;101013.78;4808818;29;20048;-95
2022/09/16 01:34:27;;;;;;;;;;;;;;;;;;;;;
2022/09/16 01:37:48;;;;;;;10.30;3.83;;;;;;;10.27;96.01;101012.94;4853504;29;20045;-95
2022/09/16 01:40:44;;;;;;;10.40;4.10;;;;;;;10.29;96.41;101018.09;4844919;29;20037;-95
2022/09/16 01:43:49;;;;;;;7.30;2.80;;;;;;;10.22;96.28;101007.22;4819318;29;20046;-95
2022/09/16 01:47:09;;;;;;;8.68;2.72;;;;;;;10.16;96.80;101028.88;4836977;29;20142;-95
2022/09/16 01:50:13;;;;;;;3.67;1.63;;;;;;;10.11;97.13;101028.41;4861078;29;20070;-95
2022/09/16 01:52:55;;;;;;;8.75;3.20;;;;;;;10.06;97.26;101018.22;4842717;29;20058;-96
2022/09/16 01:55:59;;;;;;;4.60;1.17;;;;;;;10.04;97.33;101028.91;4835416;29;20064;-96
2022/09/16 01:58:33;;;;;;;2.67;0.98;;;;;;;10.05;97.46;101041.13;4851109;29;20137;-96
2022/09/16 02:01:22;;;;;;;4.05;0.80;;;;;;;10.02;97.46;101036.13;4811041;29;20049;-95
2022/09/16 02:03:55;;;;;;;7.35;1.00;;;;;;;10.04;97.52;101047.41;4829694;29;20052;-95
2022/09/16 02:06:28;;;;;;;3.63;1.08;;;;;;;10.15;96.88;101045.66;4816022;29;20062;-95
2022/09/16 02:09:11;;;;;;;2.38;1.20;;;;;;;10.20;96.47;101048.78;4834213;29;20049;-95
2022/09/16 02:11:42;;;;;;;16.92;4.72;;;;;;;10.21;95.80;101046.97;4832409;29;20041;-95
2022/09/16 02:14:17;;;;;;;5.38;1.83;;;;;;;10.21;95.84;101046.97;4845404;29;20029;-95
2022/09/16 02:17:17;;;;;;;4.78;1.63;;;;;;;10.24;95.70;101052.00;4822997;29;20049;-95
2022/09/16 02:19:50;;;;;;;12.88;3.70;;;;;;;10.26;95.58;101053.53;4833271;29;20045;-95
2022/09/16 02:22:33;;;;;;;8.57;3.03;;;;;;;10.27;95.70;101035.91;4845168;29;20455;-95
2022/09/16 02:25:05;;;;;;;9.15;1.52;;;;;;;10.35;95.40;101033.44;4837442;29;20037;-95
2022/09/16 02:27:35;;;;;;;2.55;1.13;;;;;;;10.33;94.92;101039.81;4844870;29;20037;-94
2022/09/16 02:30:23;;;;;;;11.10;3.97;;;;;;;10.31;94.39;101039.94;4844305;29;20073;-94
2022/09/16 02:33:06;;;;;;;11.23;3.17;;;;;;;10.25;94.71;101051.88;4830231;29;20041;-95
2022/09/16 02:35:38;;;;;;;12.00;3.42;;;;;;;10.09;94.98;101039.09;4844515;29;20044;-96
2022/09/16 02:38:37;;;;;;;7.90;2.58;;;;;;;10.01;95.44;101047.66;4814483;29;20045;-95
2022/09/16 02:41:08;;;;;;;5.00;1.70;;;;;;;9.83;96.50;101038.56;4831751;29;20065;-95
2022/09/16 02:43:47;;;;;;;3.20;1.42;;;;;;;9.72;97.41;101034.16;4847542;29;20029;-95
2022/09/16 02:46:59;;;;;;;5.72;1.42;;;;;;;9.69;97.94;101048.44;4826630;29;20550;-95
2022/09/16 02:49:38;;;;;;;4.78;1.45;;;;;;;9.59;98.75;101042.25;4847777;29;20046;-96
2022/09/16 02:52:14;;;;;;;3.17;1.27;;;;;;;9.60;99.04;101046.56;4845203;29;20057;-94
2022/09/16 02:55:01;;;;;;;8.23;1.60;;;;;;;9.54;99.19;101040.81;4829665;29;20066;-95
2022/09/16 02:57:28;;;;;;;4.57;1.58;;;;;;;9.49;99.52;101040.31;4828414;29;20049;-94
2022/09/16 02:59:55;;;;;;;7.65;2.05;;;;;;;9.41;99.90;101045.41;4829732;29;20544;-94
2022/09/16 03:02:21;;;;;;;2.17;1.05;;;;;;;9.36;100.00;101037.84;4826817;29;20037;-94
2022/09/16 03:04:47;;;;;;;4.13;1.33;;;;;;;9.33;100.00;101042.50;4829687;29;20105;-94
2022/09/16 03:07:15;;;;;;;4.30;1.27;;;;;;;9.31;100.00;101042.63;4830174;29;20120;-95
2022/09/16 03:09:44;;;;;;;3.78;1.23;;;;;;;9.32;100.00;101049.59;4844428;29;20038;-94
2022/09/16 03:12:39;;;;;;;3.28;1.23;;;;;;;9.32;100.00;101054.03;4829718;29;20486;-95
2022/09/16 03:15:08;;;;;;;5.57;1.33;;;;;;;9.26;100.00;101052.69;4808928;29;20120;-94
2022/09/16 03:17:45;;;;;;;5.55;1.10;;;;;;;9.27;100.00;101057.03;4843914;29;20052;-95
2022/09/16 03:20:39;;;;;;;4.50;1.48;;;;;;;9.24;100.00;101055.47;4846068;29;20054;-95
2022/09/16 03:23:27;;;;;;;6.68;2.33;;;;;;;9.25;100.00;101053.66;4828568;29;20057;-96
2022/09/16 03:26:09;;;;;;;3.47;1.10;;;;;;;9.22;100.00;101052.09;4841374;29;20048;-96
2022/09/16 03:28:41;;;;;;;2.10;1.10;;;;;;;9.20;100.00;101056.66;4833185;29;20057;-96
2022/09/16 03:31:22;;;;;;;1.35;1.00;;;;;;;9.19;100.00;101057.63;4814284;29;20081;-96
2022/09/16 03:34:01;;;;;;;3.33;1.50;;;;;;;9.20;100.00;101059.31;4845970;29;20045;-95
2022/09/16 03:36:33;;;;;;;2.05;1.23;;;;;;;9.21;100.00;101060.97;4845684;29;20057;-95
2022/09/16 03:39:02;;;;;;;3.08;1.30;;;;;;;9.19;100.00;101062.88;4806599;29;20042;-96
2022/09/16 03:41:30;;;;;;;3.72;1.48;;;;;;;9.24;100.00;101059.88;4825118;29;20048;-96
2022/09/16 03:43:57;;;;;;;3.92;1.85;;;;;;;9.26;100.00;101058.81;4830045;29;20045;-94
2022/09/16 03:46:25;;;;;;;5.55;1.70;;;;;;;9.27;100.00;101057.84;4829218;29;20038;-94
2022/09/16 03:48:51;;;;;;;5.15;1.30;;;;;;;9.33;100.00;101066.25;4844487;29;20045;-95
2022/09/16 03:51:17;;;;;;;3.33;1.30;;;;;;;9.35;100.00;101061.72;4846308;29;20048;-95
2022/09/16 03:53:46;;;;;;;3.83;1.10;;;;;;;9.37;99.80;101049.22;4817949;29;20470;-95
2022/09/16 03:56:12;;;;;;;1.42;1.00;;;;;;;9.47;98.96;101067.81;4847011;29;20068;-94
2022/09/16 03:58:38;;;;;;;2.25;0.88;;;;;;;9.47;98.53;101063.38;4821673;29;20037;-95
2022/09/16 04:01:10;;;;;;;2.53;1.10;;;;;;;9.52;97.62;101070.94;4835300;29;20041;-94
2022/09/16 04:03:36;;;;;;;3.80;1.10;;;;;;;9.49;97.08;101069.34;4854575;29;20112;-95
2022/09/16 04:06:17;;;;;;;6.68;1.60;;;;;;;9.33;96.73;101056.56;4832277;29;20090;-95
2022/09/16 04:09:00;;;;;;;1.67;1.10;;;;;;;9.24;96.65;101060.75;4832153;29;20033;-94
2022/09/16 04:11:33;;;;;;;4.10;1.20;;;;;;;9.20;96.96;101061.94;4849358;29;20424;-95
2022/09/16 04:14:03;;;;;;;4.63;1.30;;;;;;;9.14;97.18;101051.88;4848571;29;20136;-95
2022/09/16 04:16:31;;;;;;;3.63;1.25;;;;;;;9.16;97.04;101061.34;4848029;29;20041;-94
2022/09/16 04:19:35;;;;;;;4.15;1.30;;;;;;;9.16;96.61;101063.97;4851274;29;20613;-96
2022/09/16 04:22:35;;;;;;;4.47;1.17;;;;;;;9.08;96.91;101066.38;4855886;29;20056;-96
2022/09/16 04:25:17;;;;;;;;;;;;;;;8.93;96.31;101076.31;4830892;29;20046;-96
2022/09/16 04:27:51;;;;;;;6.22;1.52;;;;;;;8.90;96.28;101072.09;4864910;29;19932;-96
2022/09/16 04:30:30;;;;;;;2.58;1.10;;;;;;;8.81;96.16;101073.66;4822169;29;20141;-94
2022/09/16 04:33:08;;;;;;;3.10;1.25;;;;;;;8.83;96.14;101076.16;4824846;29;20030;-95
2022/09/16 04:35:34;;;;;;;5.13;1.20;;;;;;;8.86;95.88;101085.63;4845037;29;20038;-95
2022/09/16 04:38:06;;;;;;;4.20;1.50;;;;;;;8.83;95.93;101085.88;4849556;29;20132;-94
2022/09/16 04:40:41;;;;;;;5.43;1.35;;;;;;;8.88;95.65;101083.72;4818349;29;20038;-94
2022/09/16 04:43:15;;;;;;;4.05;1.20;;;;;;;8.86;95.85;101069.81;4844221;29;20132;-95
2022/09/16 04:45:47;;;;;;;2.70;1.00;;;;;;;8.93;95.67;101085.03;4824353;29;20038;-94
2022/09/16 04:48:29;;;;;;;6.25;1.20;;;;;;;8.98;95.55;101084.69;4811931;29;20040;-95
2022/09/16 04:51:04;;;;;;;2.40;0.98;;;;;;;9.03;95.51;101087.81;4825955;29;20050;-95
2022/09/16 04:53:33;;;;;;;4.60;1.02;;;;;;;9.06;95.45;101079.66;4810735;29;20042;-95
2022/09/16 04:56:14;;;;;;;2.55;0.82;;;;;;;9.08;94.93;101087.47;4843874;29;20049;-94
2022/09/16 04:58:49;;;;;;;2.00;1.13;;;;;;;9.09;94.90;101086.53;4813757;29;20121;-94
2022/09/16 05:01:20;;;;;;;5.28;1.42;;;;;;;9.17;94.89;101093.84;4848306;29;20109;-94
2022/09/16 05:03:49;;;;;;;4.82;1.23;;;;;;;9.15;94.66;101090.47;4843827;29;20065;-94
2022/09/16 05:06:21;;;;;;;2.35;0.95;;;;;;;9.16;94.69;101081.59;4843682;29;20046;-94
2022/09/16 05:08:53;;;;;;;4.18;1.10;;;;;;;9.18;94.35;101087.59;4828465;29;20029;-95
2022/09/16 05:11:43;;;;;;;7.07;1.50;;;;;;;9.18;94.88;101098.16;4814016;29;20068;-94
2022/09/16 05:14:21;;;;;;;;;;;;;;;9.05;95.14;101099.09;4843976;29;20045;-95
2022/09/16 05:17:06;;;;;;;5.57;1.45;;;;;;;9.03;95.53;101087.00;4827679;29;19920;-94
2022/09/16 05:19:46;;;;;;;5.13;1.63;;;;;;;9.02;95.64;101098.50;4842007;29;20085;-94
2022/09/16 05:22:51;;;;;;;3.75;1.17;;;;;;;9.06;95.61;101102.59;4827768;29;20050;-94
2022/09/16 05:25:52;;;;;;;6.30;1.52;;;;;;;9.00;95.52;101092.50;4826841;29;20053;-95
2022/09/16 05:28:24;;;;;;;3.65;0.95;;;;;;;9.00;95.82;101103.06;4828972;29;20038;-96
2022/09/16 05:31:29;;;;;;;5.15;1.30;;;;;;;9.01;94.93;101107.38;4842890;29;20084;-95
2022/09/16 05:34:08;;;;;;;5.78;1.20;;;;;;;8.98;95.12;101102.31;4813798;29;20038;-96
2022/09/16 05:36:47;;;;;;;4.78;1.63;;;;;;;8.99;95.32;101104.00;4810957;29;20042;-94
2022/09/16 05:39:19;;;;;;;5.10;1.10;;;;;;;9.04;94.82;101105.34;4823974;29;20046;-96
2022/09/16 05:41:58;;;;;;;7.93;1.92;;;;;;;9.09;94.08;101119.97;4830179;29;20045;-96
2022/09/16 05:44:25;;;;;;;3.80;1.08;;;;;;;9.09;94.37;101130.50;4843368;29;20413;-94
2022/09/16 05:47:03;;;;;;;1.63;1.05;;;;;;;9.04;94.15;101126.44;4842822;29;20042;-95
2022/09/16 05:49:29;;;;;;;5.35;1.02;;;;;;;9.07;94.06;101135.91;4827359;29;20391;-94
2022/09/16 05:51:54;;;;;;;5.80;1.40;;;;;;;9.07;94.32;101135.91;4827700;29;20102;-93
2022/09/16 05:54:24;;;;;;;3.95;0.88;;;;;;;9.08;93.83;101134.94;4842549;29;20037;-94
2022/09/16 05:56:50;;;;;;;2.90;0.82;;;;;;;9.03;93.90;101135.28;4842758;29;20052;-94
2022/09/16 05:59:17;;;;;;;4.55;1.08;;;;;;;9.02;93.84;101132.75;4835439;29;20038;-96
2022/09/16 06:01:46;;;;;;;2.05;1.00;;;;;;;8.97;93.92;101141.03;4836379;29;20042;-96
2022/09/16 06:04:14;;;;;;;5.38;1.35;;;;;;;8.92;94.01;101137.88;4828626;29;20034;-96
2022/09/16 06:06:45;;;;;;;5.78;1.05;;;;;;;8.93;94.48;101142.22;4827765;29;20486;-96
2022/09/16 06:09:14;;;;;;;3.42;1.00;;;;;;;8.98;94.58;101149.78;4824968;29;20049;-93
2022/09/16 06:11:43;;;;;;;3.33;1.05;;;;;;;8.99;94.39;101147.03;4842099;29;20407;-95
2022/09/16 06:14:10;;;;;;;2.45;1.00;;;;;;;8.98;94.31;101142.69;4835339;29;20063;-96
2022/09/16 06:16:36;;;;;;;3.53;1.02;;;;;;;9.00;94.14;101150.53;4843165;29;20057;-96
2022/09/16 06:19:09;;;;;;;5.80;0.95;;;;;;;9.02;94.40;101145.94;4842142;29;20048;-96
2022/09/16 06:21:46;;;;;;;4.32;1.02;;;;;;;9.00;94.21;101153.97;4841872;29;20038;-96
2022/09/16 06:24:20;;;;;;;5.07;1.20;;;;;;;9.00;94.27;101147.88;4828799;29;20045;-94
2022/09/16 06:26:54;;;;;;;5.07;1.15;;;;;;;9.05;94.22;101162.38;4841377;29;20479;-93
2022/09/16 06:29:33;;;;;;;10.80;2.22;;;;;;;9.06;94.43;101157.97;4843268;29;20038;-93
2022/09/16 06:32:31;;;;;;;6.13;0.82;;;;;;;9.08;94.60;101168.41;4811201;29;20046;-94
2022/09/16 06:35:31;;;;;;;2.17;0.73;;;;;;;9.05;94.62;101164.19;4828820;29;20048;-94
2022/09/16 06:38:00;;;;;;;4.65;0.80;;;;;;;9.05;95.00;101166.81;4826306;29;20137;-94
2022/09/16 06:40:33;;;;;;;3.70;0.90;;;;;;;9.16;95.24;101173.91;4810393;29;20046;-92
2022/09/16 06:42:59;;;;;;;6.43;1.05;;;;;;;9.13;95.59;101168.88;4841511;29;20053;-94
2022/09/16 06:45:25;;;;;;;6.18;1.67;;;;;;;9.22;95.86;101183.97;4840799;29;20042;-93
2022/09/16 06:47:51;;;;;;;3.70;0.95;;;;;;;9.28;95.66;101185.34;4824745;29;20563;-94
2022/09/16 06:50:16;;;;;;;2.75;1.20;;;;;;;9.32;96.00;101191.22;4839835;29;20372;-94
2022/09/16 06:52:42;;;;;;;2.05;0.80;;;;;;;9.31;96.38;101179.81;4841532;29;20093;-93
2022/09/16 06:55:11;;;;;;;2.85;0.90;;;;;;;9.38;96.44;101191.56;4842313;29;20030;-94
2022/09/16 06:57:37;;;;;;;3.72;0.90;;;;;;;9.47;96.72;101195.31;4842604;29;20069;-93
2022/09/16 07:00:11;;;;;;;4.57;1.25;;;;;;;9.58;97.10;101204.19;4843070;29;20080;-94
2022/09/16 07:02:37;;;;;;;2.17;0.63;;;;;;;9.65;97.84;101190.38;4810247;29;20048;-94
2022/09/16 07:05:12;;;;;;;4.25;0.75;;;;;;;9.80;97.82;101192.78;4841556;29;20042;-93
2022/09/16 07:07:53;;;;;;;6.45;1.00;;;;;;;9.81;97.74;101191.81;4825558;29;20073;-94
2022/09/16 07:10:57;;;;;;;4.05;0.88;;;;;;;9.82;97.62;101190.88;4827278;29;20501;-94
2022/09/16 07:13:53;;;;;;;;;;;;;;;;;;;;;
2022/09/16 07:16:54;;;;;;;2.72;0.70;;;;;;;9.87;97.91;101198.44;4828220;29;20048;-96
2022/09/16 07:19:24;;;;;;;4.65;0.90;;;;;;;9.94;97.66;101202.25;4841593;29;20085;-96
2022/09/16 07:21:56;;;;;;;3.47;0.75;;;;;;;9.99;97.37;101199.25;4812702;29;20041;-96
2022/09/16 07:24:40;;;;;;;2.00;0.70;;;;;;;10.06;97.47;101205.75;4841967;29;20079;-95
2022/09/16 07:27:39;;;;;;;1.95;0.80;;;;;;;10.13;97.21;101203.47;4849730;29;20563;-94
2022/09/16 07:30:05;;;;;;;6.53;1.38;;;;;;;10.18;97.03;101202.13;4838855;29;20112;-96
2022/09/16 07:32:59;;;;;;;2.95;0.80;;;;;;;10.22;96.39;101215.09;4843461;29;20041;-96
2022/09/16 07:35:29;;;;;;;2.45;0.70;;;;;;;10.27;96.83;101212.91;4829028;29;20051;-96
2022/09/16 07:42:02;;;;;;;5.38;1.00;;;;;;;10.49;97.31;101221.78;4859807;29;20042;-93
2022/09/16 07:44:53;;;;;;;3.88;1.05;;;;;;;10.52;96.64;101211.81;4842141;29;20141;-95
2022/09/16 07:47:37;;;;;;;2.05;0.75;;;;;;;10.58;96.85;101228.97;4854659;29;20126;-94
2022/09/16 07:51:20;;;;;;;5.43;1.00;;;;;;;10.54;96.47;101220.44;4800898;29;20492;-95
2022/09/16 07:54:45;;;;;;;5.78;1.25;;;;;;;10.54;96.79;101223.06;4787492;29;20055;-95
2022/09/16 07:58:05;;;;;;;3.65;0.90;;;;;;;10.58;97.09;101234.25;4771037;29;20058;-96
2022/09/16 08:01:42;;;;;;;7.10;1.02;;;;;;;10.61;96.69;101230.50;4776392;29;20057;-95
2022/09/16 08:05:29;;;;;;;3.90;0.93;;;;;;;10.67;97.26;101237.97;4792237;29;20054;-95
2022/09/16 08:09:02;;;;;;;4.22;0.90;;;;;;;10.71;96.83;101242.03;4787572;29;20043;-96
2022/09/16 08:12:15;;;;;;;5.10;0.70;;;;;;;10.73;96.70;101239.25;4796682;29;20038;-96
2022/09/16 08:14:40;;;;;;;3.35;0.60;;;;;;;10.75;97.01;101240.78;4787678;29;20150;-94
2022/09/16 08:18:08;;;;;;;4.05;0.68;;;;;;;10.84;96.37;101256.88;4796726;29;20039;-96
2022/09/16 08:20:46;;;;;;;4.25;1.00;;;;;;;10.89;96.06;101252.88;4804531;29;20052;-95
2022/09/16 08:23:15;;;;;;;7.10;0.70;;;;;;;10.95;96.15;101254.19;4826273;29;20045;-95
2022/09/16 08:26:04;;;;;;;3.50;0.70;;;;;;;11.04;95.27;101257.88;4830089;29;20042;-95
2022/09/16 08:28:49;;;;;;;4.90;0.90;;;;;;;11.07;94.83;101252.34;4821310;29;20114;-96
2022/09/16 08:31:33;;;;;;;2.70;0.70;;;;;;;11.16;95.08;101261.31;4808518;29;20045;-95
2022/09/16 08:34:11;;;;;;;6.57;0.88;;;;;;;11.21;94.81;101253.00;4827420;29;20045;-94
2022/09/16 08:36:57;;;;;;;3.90;0.68;;;;;;;11.32;94.32;101260.03;4821064;29;20078;-96
2022/09/16 08:39:25;;;;;;;7.55;0.60;;;;;;;11.39;93.87;101267.31;4829394;29;20037;-96
2022/09/16 08:42:18;;;;;;;5.32;0.68;;;;;;;11.47;93.04;101269.31;4824782;29;20095;-95
2022/09/16 08:45:04;;;;;;;2.10;0.50;;;;;;;11.54;91.64;101275.78;4819605;29;20087;-94
2022/09/16 08:47:47;;;;;;;1.50;0.50;;;;;;;11.60;90.85;101270.94;4810233;29;20054;-95
2022/09/16 08:50:36;;;;;;;2.67;0.52;;;;;;;11.63;89.53;101283.91;4810560;29;20050;-95
2022/09/16 08:53:09;;;;;;;2.50;0.50;;;;;;;11.77;89.84;101288.88;4792136;29;20053;-95
2022/09/16 08:55:39;;;;;;;2.85;0.40;;;;;;;11.80;87.49;101293.09;4827728;29;20040;-95
2022/09/16 08:58:32;;;;;;;1.73;0.30;;;;;;;11.73;85.20;101279.50;4813330;29;20406;-94
2022/09/16 09:01:03;;;;;;;3.78;0.68;;;;;;;11.70;84.48;101287.72;4826723;29;20038;-93
2022/09/16 09:03:32;;;;;;;5.43;1.08;;;;;;;11.75;85.49;101298.75;4813122;29;20030;-96
2022/09/16 09:05:59;;;;;;;3.95;0.70;;;;;;;11.84;84.34;101296.28;4788250;29;20049;-95
2022/09/16 09:09:09;;;;;;;;;;;;;;;11.82;83.94;101303.53;4798065;29;20045;-94
2022/09/16 09:11:37;;;;;;;6.50;0.80;;;;;;;11.97;84.86;101312.81;4777881;30;19930;-95
2022/09/16 09:14:22;;;;;;;4.75;0.50;;;;;;;12.03;84.29;101308.78;4818950;29;20061;-95
2022/09/16 09:17:23;;;;;;;2.28;0.55;;;;;;;12.15;83.52;101313.06;4824116;29;20046;-95
2022/09/16 09:20:21;;;;;;;8.55;0.95;;;;;;;12.07;81.44;101302.25;4811364;29;20153;-95
2022/09/16 09:23:08;;;;;;;2.92;0.80;;;;;;;12.11;82.67;101314.31;4787199;29;20034;-95
2022/09/16 09:25:47;;;;;;;3.97;0.63;;;;;;;12.20;82.87;101310.00;4838959;29;20099;-95
2022/09/16 09:28:55;;;;;;;2.40;0.50;;;;;;;12.11;80.20;101313.44;4809971;29;20042;-94
2022/09/16 09:31:43;;;;;;;3.22;0.47;;;;;;;12.15;82.07;101306.94;4809984;29;20042;-94
2022/09/16 09:34:33;;;;;;;5.05;0.60;;;;;;;12.19;82.14;101308.34;4819092;29;20045;-93
2022/09/16 09:37:28;;;;;;;3.47;0.52;;;;;;;12.28;82.34;101304.88;4825259;29;20081;-94
2022/09/16 09:40:25;;;;;;;1.25;0.43;;;;;;;12.32;80.07;101309.91;4804834;29;20136;-96
2022/09/16 09:43:19;;;;;;;1.95;0.30;;;;;;;12.29;79.61;101326.94;4824797;29;20055;-96
2022/09/16 09:45:54;;;;;;;3.63;0.55;;;;;;;12.28;79.79;101319.94;4802827;29;20416;-89
2022/09/16 09:48:30;;;;;;;2.30;0.52;;;;;;;12.25;79.82;101325.50;4796645;29;20045;-93
2022/09/16 09:51:00;;;;;;;;;;;;;;;12.22;80.09;101325.78;4810192;29;20046;-92
2022/09/16 09:53:35;;;;;;;2.75;0.43;;;;;;;12.40;80.50;101326.00;4794288;29;19921;-92
2022/09/16 09:56:10;;;;;;;5.93;0.93;;;;;;;12.50;80.28;101315.41;4811762;29;20142;-93
2022/09/16 09:59:16;;;;;;;4.10;0.70;;;;;;;12.48;78.79;101320.00;4796960;29;20057;-94
2022/09/16 10:01:42;;;;;;;0.98;0.30;;;;;;;12.50;78.84;101318.06;4811142;29;20500;-91
2022/09/16 10:04:14;;;;;;;2.20;0.30;;;;;;;12.63;79.51;101317.78;4787493;29;20130;-93
2022/09/16 10:06:41;;;;;;;1.48;0.45;;;;;;;12.71;78.84;101315.31;4839697;29;20042;-88
2022/09/16 10:09:12;;;;;;;3.97;0.50;;;;;;;12.71;78.43;101317.16;4824992;29;20070;-92
2022/09/16 10:11:54;;;;;;;3.05;0.40;;;;;;;12.73;79.38;101309.88;4824945;29;20065;-93
2022/09/16 10:14:38;;;;;;;2.15;0.70;;;;;;;12.75;77.72;101332.66;4829150;29;20054;-95
2022/09/16 10:17:16;;;;;;;4.20;0.75;;;;;;;12.73;77.75;101320.47;4825992;29;20075;-96
2022/09/16 10:20:26;;;;;;;3.95;0.50;;;;;;;12.78;78.78;101316.47;4800623;29;20042;-96
2022/09/16 10:28:00;;;;;;;3.85;0.65;;;;;;;12.82;78.07;101327.59;4819503;29;20119;-96
2022/09/16 10:30:58;;;;;;;2.78;0.63;;;;;;;12.84;78.26;101311.56;4792185;29;20046;-96
2022/09/16 10:34:09;;;;;;;3.75;0.20;;;;;;;12.91;76.71;101315.34;4795176;29;20488;-96
2022/09/16 10:37:15;;;;;;;1.40;0.30;;;;;;;13.17;77.83;101309.47;4817162;29;20530;-96
2022/09/16 10:39:52;;;;;;;9.15;0.80;;;;;;;13.22;75.27;101301.94;4808499;29;20046;-96
2022/09/16 10:46:51;;;;;;;0.73;0.17;;;;;;;13.39;72.01;101307.53;4827955;29;20407;-96
2022/09/16 10:57:33;;;;;;;3.13;0.30;;;;;;;13.74;70.56;101310.56;4816822;29;20042;-96
2022/09/16 11:00:19;;;;;;;1.85;0.35;;;;;;;13.92;70.51;101307.16;4824463;29;20034;-95
2022/09/16 11:03:27;;;;;;;0.82;0.10;;;;;;;14.14;70.68;101316.59;4838068;29;20082;-95
2022/09/16 11:06:48;;;;;;;;;;;;;;;14.12;67.52;101295.47;4797179;29;20102;-96
2022/09/16 11:09:27;;;;;;;2.15;0.20;;;;;;;14.20;68.46;101299.19;4827156;29;19940;-96
2022/09/16 11:15:16;;;;;;;1.40;0.20;;;;;;;14.26;68.72;101312.75;4805466;29;20038;-96
2022/09/16 11:17:51;;;;;;;2.53;0.40;;;;;;;14.32;67.95;101302.50;4801700;29;20054;-96
2022/09/16 11:20:29;;;;;;;2.97;0.30;;;;;;;14.27;66.39;101303.78;4819293;29;20285;-96
2022/09/16 11:23:36;;;;;;;2.97;0.35;;;;;;;14.25;65.66;101294.28;4820162;29;20478;-96
2022/09/16 11:26:59;;;;;;;0.85;0.20;;;;;;;14.31;65.13;101303.47;4799157;29;20039;-96
2022/09/16 11:30:02;;;;;;;2.40;0.30;;;;;;;14.45;65.87;101299.47;4838625;29;20119;-96
2022/09/16 11:33:14;;;;;;;2.47;0.30;;;;;;;14.48;63.45;101296.53;4846054;29;20043;-96
2022/09/16 11:36:37;;;;;;;1.65;0.25;;;;;;;14.46;65.10;101301.19;4810627;29;20030;-96
2022/09/16 11:39:30;;;;;;;1.02;0.10;;;;;;;14.21;61.20;101299.06;4826920;29;20046;-96
2022/09/16 11:42:42;;;;;;;0.75;0.10;;;;;;;14.13;61.79;101310.44;4803005;29;20078;-96
2022/09/16 11:45:56;;;;;;;1.65;0.30;;;;;;;14.39;63.19;101306.25;4815059;29;20117;-96
2022/09/16 11:49:16;;;;;;;2.20;0.20;;;;;;;14.67;61.80;101310.72;4827680;29;20165;-95
2022/09/16 11:52:40;;;;;;;2.70;0.15;;;;;;;14.87;61.54;101316.75;4797677;29;20038;-96
2022/09/16 11:55:29;;;;;;;0.50;0.20;;;;;;;14.94;61.54;101328.47;4830537;29;20047;-96
2022/09/16 11:58:14;;;;;;;0.90;0.17;;;;;;;14.66;62.07;101317.00;4818292;29;20033;-96
2022/09/16 12:00:41;;;;;;;0.57;0.10;;;;;;;14.42;62.22;101319.25;4834066;29;20058;-96
2022/09/16 12:03:52;;;;;;;1.65;0.30;;;;;;;14.31;61.13;101308.81;4833006;29;20499;-96
2022/09/16 12:07:00;;;;;;;3.20;0.28;;;;;;;14.53;60.98;101312.88;4799475;29;20049;-96
2022/09/16 12:09:57;;;;;;;2.58;0.20;;;;;;;14.79;60.38;101312.19;4800160;29;20074;-96
2022/09/16 12:17:12;;;;;;;0.90;0.25;;;;;;;15.28;59.71;101299.47;4839889;29;20058;-96
2022/09/16 12:19:49;;;;;;;1.55;0.20;;;;;;;15.30;60.25;101302.81;4825845;29;20121;-93
2022/09/16 12:22:39;;;;;;;1.52;0.20;;;;;;;15.17;60.36;101308.53;4851560;29;20058;-96
2022/09/16 12:25:16;;;;;;;1.60;0.30;;;;;;;15.30;60.66;101311.66;4834052;29;20026;-96
2022/09/16 12:28:42;;;;;;;2.35;0.40;;;;;;;15.36;58.41;101312.84;4810059;29;20046;-96
2022/09/16 12:38:47;;;;;;;4.15;0.40;;;;;;;15.13;59.99;101314.16;4743959;29;20044;-95
2022/09/16 12:41:44;;;;;;;1.35;0.30;;;;;;;15.18;60.03;101313.72;4785425;29;20050;-96
2022/09/16 12:45:11;;;;;;;2.45;0.38;;;;;;;15.08;57.46;101315.63;4792878;29;20042;-94
2022/09/16 12:47:55;;;;;;;0.95;0.20;;;;;;;15.23;58.25;101306.09;4776259;29;20065;-96
2022/09/16 12:50:42;;;;;;;3.85;0.32;;;;;;;15.47;58.61;101301.13;4788573;29;20436;-93
2022/09/16 12:54:10;;;;;;;2.40;0.40;;;;;;;15.61;56.43;101313.03;4818541;29;20038;-96
2022/09/16 12:57:47;;;;;;;1.13;0.20;;;;;;;15.65;56.58;101309.06;4835609;29;20038;-96
2022/09/16 13:00:41;;;;;;;0.55;0.15;;;;;;;15.69;52.56;101302.44;4812226;29;20540;-94
2022/09/16 13:03:21;;;;;;;2.30;0.43;;;;;;;15.74;54.09;101307.28;4814364;29;20046;-95
2022/09/16 13:05:52;;;;;;;1.90;0.28;;;;;;;15.71;54.83;101300.44;4811023;29;20039;-94
2022/09/16 13:08:29;;;;;;;0.82;0.25;;;;;;;15.79;55.05;101306.81;4825562;29;20035;-95
2022/09/16 13:11:06;;;;;;;1.45;0.20;;;;;;;15.85;53.21;101298.19;4805810;29;20103;-96
2022/09/16 13:13:55;;;;;;;1.40;0.20;;;;;;;15.88;53.37;101290.72;4826838;29;20065;-96
2022/09/16 13:16:35;;;;;;;2.63;0.30;;;;;;;15.86;53.92;101302.53;4825621;29;20034;-95
2022/09/16 13:19:33;;;;;;;3.50;0.30;;;;;;;15.67;55.06;101298.25;4825185;29;20042;-96
2022/09/16 13:22:28;;;;;;;2.50;0.25;;;;;;;15.18;56.15;101294.25;4829359;29;20042;-94
2022/09/16 13:25:00;;;;;;;1.95;0.40;;;;;;;15.04;57.82;101296.47;4828751;29;20046;-95
2022/09/16 13:27:26;;;;;;;2.38;0.50;;;;;;;15.01;58.85;101299.41;4832294;29;20061;-93